sensor_id;sensor_type;location;lat;lon;timestamp;P1;durP1;ratioP1;P2;durP2;ratioP2
21587;SDS011;10956;48.878;13.316;2022-07-29T00:00:56;2.60;;;2.40;;
21587;SDS011;10956;48.878;13.316;2022-07-29T00:03:21;2.63;;;2.43;;
21587;SDS011;10956;48.878;13.316;2022-07-29T00:05:47;3.10;;;2.60;;
21587;SDS011;10956;48.878;13.316;2022-07-29T00:08:12;2.70;;;2.50;;
21587;SDS011;10956;48.878;13.316;2022-07-29T00:10:38;3.13;;;2.70;;
21587;SDS011;10956;48.878;13.316;2022-07-29T00:13:03;3.20;;;2.90;;
21587;SDS011;10956;48.878;13.316;2022-07-29T00:15:29;3.30;;;2.50;;
21587;SDS011;10956;48.878;13.316;2022-07-29T00:17:54;2.80;;;2.60;;
21587;SDS011;10956;48.878;13.316;2022-07-29T00:20:20;2.50;;;2.30;;
21587;SDS011;10956;48.878;13.316;2022-07-29T00:22:45;2.83;;;2.63;;
21587;SDS011;10956;48.878;13.316;2022-07-29T00:25:11;3.13;;;2.83;;
21587;SDS011;10956;48.878;13.316;2022-07-29T00:27:37;2.50;;;2.30;;
21587;SDS011;10956;48.878;13.316;2022-07-29T00:30:03;2.97;;;2.77;;
21587;SDS011;10956;48.878;13.316;2022-07-29T00:32:29;2.87;;;2.63;;
21587;SDS011;10956;48.878;13.316;2022-07-29T00:34:55;2.90;;;2.60;;
21587;SDS011;10956;48.878;13.316;2022-07-29T00:37:39;2.60;;;2.40;;
21587;SDS011;10956;48.878;13.316;2022-07-29T00:40:04;3.07;;;2.40;;
21587;SDS011;10956;48.878;13.316;2022-07-29T00:42:30;3.17;;;2.87;;
21587;SDS011;10956;48.878;13.316;2022-07-29T00:45:05;2.90;;;2.70;;
21587;SDS011;10956;48.878;13.316;2022-07-29T00:47:31;2.90;;;2.60;;
21587;SDS011;10956;48.878;13.316;2022-07-29T00:49:56;3.10;;;2.80;;
21587;SDS011;10956;48.878;13.316;2022-07-29T00:52:22;3.00;;;2.80;;
21587;SDS011;10956;48.878;13.316;2022-07-29T00:54:47;2.80;;;2.60;;
21587;SDS011;10956;48.878;13.316;2022-07-29T00:57:13;2.80;;;2.60;;
21587;SDS011;10956;48.878;13.316;2022-07-29T00:59:38;2.80;;;2.60;;
21587;SDS011;10956;48.878;13.316;2022-07-29T01:02:05;2.73;;;2.47;;
21587;SDS011;10956;48.878;13.316;2022-07-29T01:04:30;2.70;;;2.50;;
21587;SDS011;10956;48.878;13.316;2022-07-29T01:06:56;2.87;;;2.40;;
21587;SDS011;10956;48.878;13.316;2022-07-29T01:09:22;2.70;;;2.50;;
21587;SDS011;10956;48.878;13.316;2022-07-29T01:11:48;3.00;;;2.30;;
21587;SDS011;10956;48.878;13.316;2022-07-29T01:14:15;2.40;;;2.20;;
21587;SDS011;10956;48.878;13.316;2022-07-29T01:16:42;2.80;;;2.33;;
21587;SDS011;10956;48.878;13.316;2022-07-29T01:25:05;2.90;;;2.70;;
21587;SDS011;10956;48.878;13.316;2022-07-29T01:30:38;2.40;;;2.20;;
21587;SDS011;10956;48.878;13.316;2022-07-29T01:33:07;2.43;;;2.23;;
21587;SDS011;10956;48.878;13.316;2022-07-29T01:35:56;2.50;;;2.30;;
21587;SDS011;10956;48.878;13.316;2022-07-29T01:38:23;2.63;;;2.43;;
21587;SDS011;10956;48.878;13.316;2022-07-29T01:40:54;2.33;;;2.17;;
21587;SDS011;10956;48.878;13.316;2022-07-29T01:43:38;2.60;;;2.40;;
21587;SDS011;10956;48.878;13.316;2022-07-29T01:46:09;2.53;;;2.33;;
21587;SDS011;10956;48.878;13.316;2022-07-29T01:48:41;2.93;;;2.67;;
21587;SDS011;10956;48.878;13.316;2022-07-29T01:51:14;2.80;;;2.60;;
21587;SDS011;10956;48.878;13.316;2022-07-29T01:54:02;2.47;;;2.27;;
21587;SDS011;10956;48.878;13.316;2022-07-29T01:56:31;3.03;;;2.73;;
21587;SDS011;10956;48.878;13.316;2022-07-29T01:58:59;2.50;;;2.30;;
21587;SDS011;10956;48.878;13.316;2022-07-29T02:01:26;2.50;;;2.33;;
21587;SDS011;10956;48.878;13.316;2022-07-29T02:03:54;2.03;;;1.93;;
21587;SDS011;10956;48.878;13.316;2022-07-29T02:06:22;2.60;;;2.40;;
21587;SDS011;10956;48.878;13.316;2022-07-29T02:08:49;2.40;;;2.20;;
21587;SDS011;10956;48.878;13.316;2022-07-29T02:11:17;2.20;;;2.00;;
21587;SDS011;10956;48.878;13.316;2022-07-29T02:13:43;2.17;;;1.97;;
21587;SDS011;10956;48.878;13.316;2022-07-29T02:16:10;2.30;;;2.07;;
21587;SDS011;10956;48.878;13.316;2022-07-29T02:18:37;2.63;;;2.13;;
21587;SDS011;10956;48.878;13.316;2022-07-29T02:21:05;2.43;;;2.23;;
21587;SDS011;10956;48.878;13.316;2022-07-29T02:23:32;2.37;;;2.10;;
21587;SDS011;10956;48.878;13.316;2022-07-29T02:26:00;2.73;;;2.53;;
21587;SDS011;10956;48.878;13.316;2022-07-29T02:28:28;3.10;;;2.80;;
21587;SDS011;10956;48.878;13.316;2022-07-29T02:30:56;3.17;;;2.50;;
21587;SDS011;10956;48.878;13.316;2022-07-29T02:33:24;3.40;;;3.10;;
21587;SDS011;10956;48.878;13.316;2022-07-29T02:35:50;3.20;;;2.90;;
21587;SDS011;10956;48.878;13.316;2022-07-29T02:38:17;2.60;;;2.40;;
21587;SDS011;10956;48.878;13.316;2022-07-29T02:41:04;3.63;;;2.03;;
21587;SDS011;10956;48.878;13.316;2022-07-29T02:43:34;2.40;;;2.20;;
21587;SDS011;10956;48.878;13.316;2022-07-29T02:46:00;2.60;;;2.27;;
21587;SDS011;10956;48.878;13.316;2022-07-29T02:48:34;4.10;;;2.30;;
21587;SDS011;10956;48.878;13.316;2022-07-29T02:51:14;2.60;;;2.30;;
21587;SDS011;10956;48.878;13.316;2022-07-29T02:53:44;2.73;;;2.53;;
21587;SDS011;10956;48.878;13.316;2022-07-29T02:56:14;2.80;;;2.10;;
21587;SDS011;10956;48.878;13.316;2022-07-29T02:58:49;2.40;;;2.20;;
21587;SDS011;10956;48.878;13.316;2022-07-29T03:01:21;2.70;;;2.23;;
21587;SDS011;10956;48.878;13.316;2022-07-29T03:03:48;2.70;;;2.50;;
21587;SDS011;10956;48.878;13.316;2022-07-29T03:06:16;2.40;;;2.20;;
21587;SDS011;10956;48.878;13.316;2022-07-29T03:08:43;2.27;;;2.07;;
21587;SDS011;10956;48.878;13.316;2022-07-29T03:11:10;2.50;;;2.30;;
21587;SDS011;10956;48.878;13.316;2022-07-29T03:13:37;2.27;;;2.07;;
21587;SDS011;10956;48.878;13.316;2022-07-29T03:16:03;2.20;;;2.00;;
21587;SDS011;10956;48.878;13.316;2022-07-29T03:18:29;2.67;;;2.30;;
21587;SDS011;10956;48.878;13.316;2022-07-29T03:20:55;2.40;;;2.20;;
21587;SDS011;10956;48.878;13.316;2022-07-29T03:23:21;2.60;;;2.40;;
21587;SDS011;10956;48.878;13.316;2022-07-29T03:25:52;2.33;;;2.13;;
21587;SDS011;10956;48.878;13.316;2022-07-29T03:28:18;2.90;;;2.27;;
21587;SDS011;10956;48.878;13.316;2022-07-29T03:30:43;2.10;;;2.00;;
21587;SDS011;10956;48.878;13.316;2022-07-29T03:33:09;2.30;;;2.10;;
21587;SDS011;10956;48.878;13.316;2022-07-29T03:35:34;2.30;;;2.17;;
21587;SDS011;10956;48.878;13.316;2022-07-29T03:38:00;2.27;;;2.07;;
21587;SDS011;10956;48.878;13.316;2022-07-29T03:40:27;2.90;;;2.10;;
21587;SDS011;10956;48.878;13.316;2022-07-29T03:43:00;2.30;;;2.10;;
21587;SDS011;10956;48.878;13.316;2022-07-29T03:45:27;2.20;;;2.00;;
21587;SDS011;10956;48.878;13.316;2022-07-29T03:47:57;2.10;;;2.00;;
21587;SDS011;10956;48.878;13.316;2022-07-29T03:50:27;2.13;;;2.03;;
21587;SDS011;10956;48.878;13.316;2022-07-29T03:52:55;2.17;;;1.97;;
21587;SDS011;10956;48.878;13.316;2022-07-29T03:55:20;2.07;;;1.87;;
21587;SDS011;10956;48.878;13.316;2022-07-29T03:57:47;1.83;;;1.73;;
21587;SDS011;10956;48.878;13.316;2022-07-29T04:00:13;2.50;;;2.30;;
21587;SDS011;10956;48.878;13.316;2022-07-29T04:02:40;2.47;;;2.27;;
21587;SDS011;10956;48.878;13.316;2022-07-29T04:05:13;2.50;;;2.30;;
21587;SDS011;10956;48.878;13.316;2022-07-29T04:07:39;3.07;;;2.50;;
21587;SDS011;10956;48.878;13.316;2022-07-29T04:10:12;2.63;;;2.43;;
21587;SDS011;10956;48.878;13.316;2022-07-29T04:12:38;2.60;;;2.40;;
21587;SDS011;10956;48.878;13.316;2022-07-29T04:15:03;2.90;;;2.70;;
21587;SDS011;10956;48.878;13.316;2022-07-29T04:17:29;2.60;;;2.40;;
21587;SDS011;10956;48.878;13.316;2022-07-29T04:19:54;2.67;;;2.47;;
21587;SDS011;10956;48.878;13.316;2022-07-29T04:22:20;3.13;;;2.87;;
21587;SDS011;10956;48.878;13.316;2022-07-29T04:24:45;2.53;;;2.33;;
21587;SDS011;10956;48.878;13.316;2022-07-29T04:27:11;3.43;;;2.80;;
21587;SDS011;10956;48.878;13.316;2022-07-29T04:29:36;2.83;;;2.63;;
21587;SDS011;10956;48.878;13.316;2022-07-29T04:32:02;2.70;;;2.50;;
21587;SDS011;10956;48.878;13.316;2022-07-29T04:34:27;2.77;;;2.57;;
21587;SDS011;10956;48.878;13.316;2022-07-29T04:36:53;2.57;;;2.37;;
21587;SDS011;10956;48.878;13.316;2022-07-29T04:39:18;2.43;;;2.23;;
21587;SDS011;10956;48.878;13.316;2022-07-29T04:41:43;3.27;;;2.87;;
21587;SDS011;10956;48.878;13.316;2022-07-29T04:44:09;2.80;;;2.60;;
21587;SDS011;10956;48.878;13.316;2022-07-29T04:46:35;3.07;;;2.80;;
21587;SDS011;10956;48.878;13.316;2022-07-29T04:49:01;2.63;;;2.43;;
21587;SDS011;10956;48.878;13.316;2022-07-29T04:51:27;2.60;;;2.40;;
21587;SDS011;10956;48.878;13.316;2022-07-29T04:53:53;2.77;;;2.57;;
21587;SDS011;10956;48.878;13.316;2022-07-29T04:56:18;2.60;;;2.40;;
21587;SDS011;10956;48.878;13.316;2022-07-29T04:58:43;2.63;;;2.40;;
21587;SDS011;10956;48.878;13.316;2022-07-29T05:01:09;2.73;;;2.53;;
21587;SDS011;10956;48.878;13.316;2022-07-29T05:03:34;2.70;;;2.50;;
21587;SDS011;10956;48.878;13.316;2022-07-29T05:06:00;2.70;;;2.50;;
21587;SDS011;10956;48.878;13.316;2022-07-29T05:08:25;2.30;;;2.10;;
21587;SDS011;10956;48.878;13.316;2022-07-29T05:10:51;2.13;;;2.00;;
21587;SDS011;10956;48.878;13.316;2022-07-29T05:13:16;2.80;;;2.40;;
21587;SDS011;10956;48.878;13.316;2022-07-29T05:15:41;2.50;;;2.30;;
21587;SDS011;10956;48.878;13.316;2022-07-29T05:18:07;2.20;;;2.10;;
21587;SDS011;10956;48.878;13.316;2022-07-29T05:20:32;2.50;;;2.30;;
21587;SDS011;10956;48.878;13.316;2022-07-29T05:22:59;2.50;;;2.30;;
21587;SDS011;10956;48.878;13.316;2022-07-29T05:25:26;2.43;;;2.23;;
21587;SDS011;10956;48.878;13.316;2022-07-29T05:27:53;2.60;;;2.40;;
21587;SDS011;10956;48.878;13.316;2022-07-29T05:30:19;2.40;;;2.20;;
21587;SDS011;10956;48.878;13.316;2022-07-29T05:32:44;2.87;;;2.63;;
21587;SDS011;10956;48.878;13.316;2022-07-29T05:35:10;2.40;;;2.20;;
21587;SDS011;10956;48.878;13.316;2022-07-29T05:37:36;2.33;;;2.13;;
21587;SDS011;10956;48.878;13.316;2022-07-29T05:40:02;3.20;;;2.40;;
21587;SDS011;10956;48.878;13.316;2022-07-29T05:42:28;2.50;;;2.30;;
21587;SDS011;10956;48.878;13.316;2022-07-29T05:44:54;2.50;;;2.30;;
21587;SDS011;10956;48.878;13.316;2022-07-29T05:47:20;2.40;;;2.20;;
21587;SDS011;10956;48.878;13.316;2022-07-29T05:49:46;2.17;;;2.07;;
21587;SDS011;10956;48.878;13.316;2022-07-29T05:52:12;2.33;;;2.13;;
21587;SDS011;10956;48.878;13.316;2022-07-29T05:54:38;2.43;;;2.23;;
21587;SDS011;10956;48.878;13.316;2022-07-29T05:57:03;2.50;;;2.30;;
21587;SDS011;10956;48.878;13.316;2022-07-29T05:59:30;2.60;;;2.40;;
21587;SDS011;10956;48.878;13.316;2022-07-29T06:01:56;2.67;;;2.47;;
21587;SDS011;10956;48.878;13.316;2022-07-29T06:04:22;2.50;;;2.30;;
21587;SDS011;10956;48.878;13.316;2022-07-29T06:06:47;2.77;;;2.50;;
21587;SDS011;10956;48.878;13.316;2022-07-29T06:09:13;2.70;;;2.50;;
21587;SDS011;10956;48.878;13.316;2022-07-29T06:11:38;2.60;;;2.40;;
21587;SDS011;10956;48.878;13.316;2022-07-29T06:14:04;2.57;;;2.37;;
21587;SDS011;10956;48.878;13.316;2022-07-29T06:16:30;3.10;;;2.40;;
21587;SDS011;10956;48.878;13.316;2022-07-29T06:18:55;2.57;;;2.37;;
21587;SDS011;10956;48.878;13.316;2022-07-29T06:21:20;2.30;;;2.10;;
21587;SDS011;10956;48.878;13.316;2022-07-29T06:23:46;2.20;;;2.00;;
21587;SDS011;10956;48.878;13.316;2022-07-29T06:26:11;2.70;;;2.50;;
21587;SDS011;10956;48.878;13.316;2022-07-29T06:28:37;2.50;;;2.30;;
21587;SDS011;10956;48.878;13.316;2022-07-29T06:31:02;3.50;;;2.50;;
21587;SDS011;10956;48.878;13.316;2022-07-29T06:33:28;3.00;;;2.70;;
21587;SDS011;10956;48.878;13.316;2022-07-29T06:35:54;2.80;;;2.60;;
21587;SDS011;10956;48.878;13.316;2022-07-29T06:38:19;2.47;;;2.27;;
21587;SDS011;10956;48.878;13.316;2022-07-29T06:40:45;2.97;;;2.27;;
21587;SDS011;10956;48.878;13.316;2022-07-29T06:43:37;2.53;;;2.33;;
21587;SDS011;10956;48.878;13.316;2022-07-29T06:46:05;2.70;;;2.50;;
21587;SDS011;10956;48.878;13.316;2022-07-29T06:48:32;2.47;;;2.27;;
21587;SDS011;10956;48.878;13.316;2022-07-29T06:50:58;2.57;;;2.30;;
21587;SDS011;10956;48.878;13.316;2022-07-29T06:53:25;3.20;;;2.80;;
21587;SDS011;10956;48.878;13.316;2022-07-29T06:55:51;3.00;;;2.77;;
21587;SDS011;10956;48.878;13.316;2022-07-29T06:58:16;2.73;;;2.53;;
21587;SDS011;10956;48.878;13.316;2022-07-29T07:00:45;2.70;;;2.23;;
21587;SDS011;10956;48.878;13.316;2022-07-29T07:03:11;3.27;;;2.97;;
21587;SDS011;10956;48.878;13.316;2022-07-29T07:05:36;2.70;;;2.50;;
21587;SDS011;10956;48.878;13.316;2022-07-29T07:08:02;2.50;;;2.30;;
21587;SDS011;10956;48.878;13.316;2022-07-29T07:10:28;2.57;;;2.37;;
21587;SDS011;10956;48.878;13.316;2022-07-29T07:12:54;2.33;;;2.13;;
21587;SDS011;10956;48.878;13.316;2022-07-29T07:15:19;2.37;;;2.17;;
21587;SDS011;10956;48.878;13.316;2022-07-29T07:17:47;3.30;;;2.80;;
21587;SDS011;10956;48.878;13.316;2022-07-29T07:20:14;2.50;;;2.30;;
21587;SDS011;10956;48.878;13.316;2022-07-29T07:22:39;2.67;;;2.47;;
21587;SDS011;10956;48.878;13.316;2022-07-29T07:25:05;3.27;;;2.97;;
21587;SDS011;10956;48.878;13.316;2022-07-29T07:27:31;2.83;;;2.60;;
21587;SDS011;10956;48.878;13.316;2022-07-29T07:29:56;3.40;;;2.87;;
21587;SDS011;10956;48.878;13.316;2022-07-29T07:32:22;2.90;;;2.70;;
21587;SDS011;10956;48.878;13.316;2022-07-29T07:34:47;2.77;;;2.57;;
21587;SDS011;10956;48.878;13.316;2022-07-29T07:37:12;2.77;;;2.57;;
21587;SDS011;10956;48.878;13.316;2022-07-29T07:39:39;3.00;;;2.70;;
21587;SDS011;10956;48.878;13.316;2022-07-29T07:42:05;3.20;;;2.90;;
21587;SDS011;10956;48.878;13.316;2022-07-29T07:44:30;4.57;;;2.90;;
21587;SDS011;10956;48.878;13.316;2022-07-29T07:46:56;2.90;;;2.70;;
21587;SDS011;10956;48.878;13.316;2022-07-29T07:49:21;3.10;;;2.80;;
21587;SDS011;10956;48.878;13.316;2022-07-29T07:51:46;3.33;;;2.90;;
21587;SDS011;10956;48.878;13.316;2022-07-29T07:54:12;3.33;;;3.03;;
21587;SDS011;10956;48.878;13.316;2022-07-29T07:56:37;3.13;;;2.83;;
21587;SDS011;10956;48.878;13.316;2022-07-29T07:59:03;2.90;;;2.70;;
21587;SDS011;10956;48.878;13.316;2022-07-29T08:01:28;2.63;;;2.43;;
21587;SDS011;10956;48.878;13.316;2022-07-29T08:03:54;4.47;;;3.47;;
21587;SDS011;10956;48.878;13.316;2022-07-29T08:06:19;2.70;;;2.50;;
21587;SDS011;10956;48.878;13.316;2022-07-29T08:08:44;3.00;;;2.43;;
21587;SDS011;10956;48.878;13.316;2022-07-29T08:11:10;3.00;;;2.40;;
21587;SDS011;10956;48.878;13.316;2022-07-29T08:13:36;2.70;;;2.50;;
21587;SDS011;10956;48.878;13.316;2022-07-29T08:16:02;2.83;;;2.63;;
21587;SDS011;10956;48.878;13.316;2022-07-29T08:18:38;3.00;;;2.80;;
21587;SDS011;10956;48.878;13.316;2022-07-29T08:21:05;3.37;;;3.07;;
21587;SDS011;10956;48.878;13.316;2022-07-29T08:23:31;2.90;;;2.70;;
21587;SDS011;10956;48.878;13.316;2022-07-29T08:26:03;3.00;;;2.70;;
21587;SDS011;10956;48.878;13.316;2022-07-29T08:28:35;3.47;;;3.17;;
21587;SDS011;10956;48.878;13.316;2022-07-29T08:31:04;4.13;;;3.83;;
21587;SDS011;10956;48.878;13.316;2022-07-29T08:33:29;3.43;;;3.13;;
21587;SDS011;10956;48.878;13.316;2022-07-29T08:35:55;2.77;;;2.57;;
21587;SDS011;10956;48.878;13.316;2022-07-29T08:38:21;2.58;;;2.38;;
21587;SDS011;10956;48.878;13.316;2022-07-29T08:40:47;2.85;;;2.65;;
21587;SDS011;10956;48.878;13.316;2022-07-29T08:43:12;2.65;;;2.45;;
21587;SDS011;10956;48.878;13.316;2022-07-29T08:45:42;3.10;;;2.85;;
21587;SDS011;10956;48.878;13.316;2022-07-29T08:48:09;4.25;;;3.38;;
21587;SDS011;10956;48.878;13.316;2022-07-29T08:50:36;3.00;;;2.80;;
21587;SDS011;10956;48.878;13.316;2022-07-29T08:53:04;3.05;;;2.85;;
21587;SDS011;10956;48.878;13.316;2022-07-29T08:55:32;2.93;;;2.73;;
21587;SDS011;10956;48.878;13.316;2022-07-29T08:57:58;2.60;;;2.40;;
21587;SDS011;10956;48.878;13.316;2022-07-29T09:00:25;3.00;;;2.80;;
21587;SDS011;10956;48.878;13.316;2022-07-29T09:02:54;3.90;;;3.58;;
21587;SDS011;10956;48.878;13.316;2022-07-29T09:05:22;4.25;;;3.72;;
21587;SDS011;10956;48.878;13.316;2022-07-29T09:07:49;3.17;;;2.97;;
21587;SDS011;10956;48.878;13.316;2022-07-29T09:10:15;3.63;;;3.10;;
21587;SDS011;10956;48.878;13.316;2022-07-29T09:12:41;3.67;;;3.38;;
21587;SDS011;10956;48.878;13.316;2022-07-29T09:15:06;3.33;;;3.03;;
21587;SDS011;10956;48.878;13.316;2022-07-29T09:17:39;3.22;;;3.03;;
21587;SDS011;10956;48.878;13.316;2022-07-29T09:20:08;2.90;;;2.70;;
21587;SDS011;10956;48.878;13.316;2022-07-29T09:22:36;3.17;;;2.97;;
21587;SDS011;10956;48.878;13.316;2022-07-29T09:25:01;3.10;;;2.90;;
21587;SDS011;10956;48.878;13.316;2022-07-29T09:27:26;4.13;;;3.35;;
21587;SDS011;10956;48.878;13.316;2022-07-29T09:30:06;3.85;;;3.55;;
21587;SDS011;10956;48.878;13.316;2022-07-29T09:33:00;3.90;;;3.60;;
21587;SDS011;10956;48.878;13.316;2022-07-29T09:35:28;3.83;;;3.53;;
21587;SDS011;10956;48.878;13.316;2022-07-29T09:37:54;3.53;;;3.23;;
21587;SDS011;10956;48.878;13.316;2022-07-29T09:40:21;3.67;;;3.37;;
21587;SDS011;10956;48.878;13.316;2022-07-29T09:42:52;3.33;;;3.03;;
21587;SDS011;10956;48.878;13.316;2022-07-29T09:47:54;3.53;;;3.20;;
21587;SDS011;10956;48.878;13.316;2022-07-29T09:50:22;3.70;;;3.40;;
21587;SDS011;10956;48.878;13.316;2022-07-29T09:52:51;3.30;;;3.10;;
21587;SDS011;10956;48.878;13.316;2022-07-29T09:55:18;3.83;;;3.50;;
21587;SDS011;10956;48.878;13.316;2022-07-29T09:57:44;3.33;;;3.10;;
21587;SDS011;10956;48.878;13.316;2022-07-29T10:00:12;3.50;;;3.30;;
21587;SDS011;10956;48.878;13.316;2022-07-29T10:02:40;3.17;;;2.97;;
21587;SDS011;10956;48.878;13.316;2022-07-29T10:05:25;3.40;;;3.10;;
21587;SDS011;10956;48.878;13.316;2022-07-29T10:07:54;4.37;;;3.97;;
21587;SDS011;10956;48.878;13.316;2022-07-29T10:12:54;3.60;;;3.33;;
21587;SDS011;10956;48.878;13.316;2022-07-29T10:15:22;3.70;;;3.40;;
21587;SDS011;10956;48.878;13.316;2022-07-29T10:17:49;3.50;;;3.20;;
21587;SDS011;10956;48.878;13.316;2022-07-29T10:20:19;4.32;;;3.97;;
21587;SDS011;10956;48.878;13.316;2022-07-29T10:22:46;4.88;;;4.45;;
21587;SDS011;10956;48.878;13.316;2022-07-29T10:25:12;4.10;;;3.80;;
21587;SDS011;10956;48.878;13.316;2022-07-29T10:27:39;3.88;;;3.47;;
21587;SDS011;10956;48.878;13.316;2022-07-29T10:30:05;3.47;;;3.15;;
21587;SDS011;10956;48.878;13.316;2022-07-29T10:32:34;4.10;;;3.80;;
21587;SDS011;10956;48.878;13.316;2022-07-29T10:35:06;3.75;;;3.45;;
21587;SDS011;10956;48.878;13.316;2022-07-29T10:40:52;2.90;;;2.70;;
21587;SDS011;10956;48.878;13.316;2022-07-29T10:43:40;3.13;;;2.80;;
21587;SDS011;10956;48.878;13.316;2022-07-29T10:46:08;4.20;;;2.55;;
21587;SDS011;10956;48.878;13.316;2022-07-29T10:49:22;2.65;;;2.30;;
21587;SDS011;10956;48.878;13.316;2022-07-29T10:54:47;2.10;;;2.00;;
21587;SDS011;10956;48.878;13.316;2022-07-29T10:59:49;1.80;;;1.70;;
21587;SDS011;10956;48.878;13.316;2022-07-29T11:07:37;1.73;;;1.63;;
21587;SDS011;10956;48.878;13.316;2022-07-29T11:10:21;2.10;;;2.00;;
21587;SDS011;10956;48.878;13.316;2022-07-29T11:12:48;2.53;;;2.33;;
21587;SDS011;10956;48.878;13.316;2022-07-29T11:15:14;2.55;;;2.35;;
21587;SDS011;10956;48.878;13.316;2022-07-29T11:20:32;2.10;;;2.00;;
21587;SDS011;10956;48.878;13.316;2022-07-29T11:22:59;2.22;;;1.95;;
21587;SDS011;10956;48.878;13.316;2022-07-29T11:25:25;2.35;;;2.17;;
21587;SDS011;10956;48.878;13.316;2022-07-29T11:27:51;2.20;;;2.00;;
21587;SDS011;10956;48.878;13.316;2022-07-29T11:30:19;2.35;;;2.15;;
21587;SDS011;10956;48.878;13.316;2022-07-29T11:32:45;2.20;;;2.00;;
21587;SDS011;10956;48.878;13.316;2022-07-29T11:37:42;2.20;;;2.10;;
21587;SDS011;10956;48.878;13.316;2022-07-29T11:40:09;2.35;;;2.20;;
21587;SDS011;10956;48.878;13.316;2022-07-29T11:42:37;2.00;;;1.90;;
21587;SDS011;10956;48.878;13.316;2022-07-29T11:47:38;1.77;;;1.67;;
21587;SDS011;10956;48.878;13.316;2022-07-29T11:50:12;2.15;;;1.95;;
21587;SDS011;10956;48.878;13.316;2022-07-29T11:52:39;2.63;;;2.42;;
21587;SDS011;10956;48.878;13.316;2022-07-29T11:55:16;2.25;;;2.13;;
21587;SDS011;10956;48.878;13.316;2022-07-29T12:03:22;1.92;;;1.83;;
21587;SDS011;10956;48.878;13.316;2022-07-29T12:05:49;1.90;;;1.80;;
21587;SDS011;10956;48.878;13.316;2022-07-29T12:08:19;2.10;;;2.00;;
21587;SDS011;10956;48.878;13.316;2022-07-29T12:10:47;2.42;;;2.25;;
21587;SDS011;10956;48.878;13.316;2022-07-29T12:13:17;1.90;;;1.80;;
21587;SDS011;10956;48.878;13.316;2022-07-29T12:15:54;2.22;;;2.03;;
21587;SDS011;10956;48.878;13.316;2022-07-29T12:18:22;1.70;;;1.60;;
21587;SDS011;10956;48.878;13.316;2022-07-29T12:20:48;1.77;;;1.67;;
21587;SDS011;10956;48.878;13.316;2022-07-29T12:23:21;2.00;;;1.90;;
21587;SDS011;10956;48.878;13.316;2022-07-29T12:25:46;1.90;;;1.80;;
21587;SDS011;10956;48.878;13.316;2022-07-29T12:28:13;2.30;;;2.10;;
21587;SDS011;10956;48.878;13.316;2022-07-29T12:33:18;2.45;;;2.25;;
21587;SDS011;10956;48.878;13.316;2022-07-29T12:36:01;2.95;;;2.65;;
21587;SDS011;10956;48.878;13.316;2022-07-29T12:38:27;2.97;;;2.65;;
21587;SDS011;10956;48.878;13.316;2022-07-29T12:40:53;2.38;;;2.17;;
21587;SDS011;10956;48.878;13.316;2022-07-29T12:43:20;2.35;;;2.13;;
21587;SDS011;10956;48.878;13.316;2022-07-29T12:45:48;1.90;;;1.80;;
21587;SDS011;10956;48.878;13.316;2022-07-29T12:48:15;1.95;;;1.70;;
21587;SDS011;10956;48.878;13.316;2022-07-29T12:50:54;1.70;;;1.60;;
21587;SDS011;10956;48.878;13.316;2022-07-29T12:53:21;1.60;;;1.50;;
21587;SDS011;10956;48.878;13.316;2022-07-29T12:55:48;1.52;;;1.42;;
21587;SDS011;10956;48.878;13.316;2022-07-29T13:01:14;1.20;;;1.10;;
21587;SDS011;10956;48.878;13.316;2022-07-29T13:03:58;1.30;;;1.20;;
21587;SDS011;10956;48.878;13.316;2022-07-29T13:11:32;1.38;;;1.27;;
21587;SDS011;10956;48.878;13.316;2022-07-29T13:14:02;1.80;;;1.30;;
21587;SDS011;10956;48.878;13.316;2022-07-29T13:16:28;1.30;;;1.20;;
21587;SDS011;10956;48.878;13.316;2022-07-29T13:19:04;1.10;;;1.10;;
21587;SDS011;10956;48.878;13.316;2022-07-29T13:21:30;1.40;;;1.30;;
21587;SDS011;10956;48.878;13.316;2022-07-29T13:23:56;1.05;;;1.00;;
21587;SDS011;10956;48.878;13.316;2022-07-29T13:26:21;1.33;;;1.23;;
21587;SDS011;10956;48.878;13.316;2022-07-29T13:28:47;1.10;;;1.10;;
21587;SDS011;10956;48.878;13.316;2022-07-29T13:31:12;1.27;;;1.10;;
21587;SDS011;10956;48.878;13.316;2022-07-29T13:33:37;1.05;;;1.05;;
21587;SDS011;10956;48.878;13.316;2022-07-29T13:36:03;1.23;;;1.13;;
21587;SDS011;10956;48.878;13.316;2022-07-29T13:38:28;1.30;;;1.20;;
21587;SDS011;10956;48.878;13.316;2022-07-29T13:40:54;1.08;;;1.08;;
21587;SDS011;10956;48.878;13.316;2022-07-29T13:43:19;1.40;;;1.25;;
21587;SDS011;10956;48.878;13.316;2022-07-29T13:45:44;1.15;;;1.05;;
21587;SDS011;10956;48.878;13.316;2022-07-29T13:48:10;1.30;;;1.20;;
21587;SDS011;10956;48.878;13.316;2022-07-29T13:50:36;1.10;;;1.10;;
21587;SDS011;10956;48.878;13.316;2022-07-29T13:53:01;1.20;;;1.10;;
21587;SDS011;10956;48.878;13.316;2022-07-29T13:55:27;1.50;;;1.40;;
21587;SDS011;10956;48.878;13.316;2022-07-29T13:57:52;1.48;;;1.20;;
21587;SDS011;10956;48.878;13.316;2022-07-29T14:00:18;1.60;;;1.50;;
21587;SDS011;10956;48.878;13.316;2022-07-29T14:02:44;3.47;;;1.30;;
21587;SDS011;10956;48.878;13.316;2022-07-29T14:05:09;1.30;;;1.20;;
21587;SDS011;10956;48.878;13.316;2022-07-29T14:07:35;1.38;;;1.27;;
21587;SDS011;10956;48.878;13.316;2022-07-29T14:10:04;1.52;;;1.42;;
21587;SDS011;10956;48.878;13.316;2022-07-29T14:12:30;1.40;;;1.30;;
21587;SDS011;10956;48.878;13.316;2022-07-29T14:14:55;1.30;;;1.20;;
21587;SDS011;10956;48.878;13.316;2022-07-29T14:17:20;1.30;;;1.20;;
21587;SDS011;10956;48.878;13.316;2022-07-29T14:19:46;1.30;;;1.20;;
21587;SDS011;10956;48.878;13.316;2022-07-29T14:22:12;1.45;;;1.35;;
21587;SDS011;10956;48.878;13.316;2022-07-29T14:24:37;1.25;;;1.15;;
21587;SDS011;10956;48.878;13.316;2022-07-29T14:27:06;1.63;;;1.52;;
21587;SDS011;10956;48.878;13.316;2022-07-29T14:29:33;1.80;;;1.70;;
21587;SDS011;10956;48.878;13.316;2022-07-29T14:31:59;1.40;;;1.30;;
21587;SDS011;10956;48.878;13.316;2022-07-29T14:34:24;1.20;;;1.10;;
21587;SDS011;10956;48.878;13.316;2022-07-29T14:36:50;1.40;;;1.30;;
21587;SDS011;10956;48.878;13.316;2022-07-29T14:39:15;1.85;;;1.33;;
21587;SDS011;10956;48.878;13.316;2022-07-29T14:41:41;1.35;;;1.25;;
21587;SDS011;10956;48.878;13.316;2022-07-29T14:44:07;1.38;;;1.27;;
21587;SDS011;10956;48.878;13.316;2022-07-29T14:46:32;1.27;;;1.23;;
21587;SDS011;10956;48.878;13.316;2022-07-29T14:48:58;1.23;;;1.20;;
21587;SDS011;10956;48.878;13.316;2022-07-29T14:51:23;1.05;;;1.00;;
21587;SDS011;10956;48.878;13.316;2022-07-29T14:53:49;1.20;;;1.10;;
21587;SDS011;10956;48.878;13.316;2022-07-29T14:56:14;1.33;;;1.30;;
21587;SDS011;10956;48.878;13.316;2022-07-29T14:58:39;1.60;;;1.50;;
21587;SDS011;10956;48.878;13.316;2022-07-29T15:01:05;1.77;;;1.52;;
21587;SDS011;10956;48.878;13.316;2022-07-29T15:03:31;1.63;;;1.52;;
21587;SDS011;10956;48.878;13.316;2022-07-29T15:05:56;1.42;;;1.33;;
21587;SDS011;10956;48.878;13.316;2022-07-29T15:08:21;1.50;;;1.40;;
21587;SDS011;10956;48.878;13.316;2022-07-29T15:10:47;1.80;;;1.70;;
21587;SDS011;10956;48.878;13.316;2022-07-29T15:13:13;1.75;;;1.65;;
21587;SDS011;10956;48.878;13.316;2022-07-29T15:15:38;1.60;;;1.50;;
21587;SDS011;10956;48.878;13.316;2022-07-29T15:18:04;1.67;;;1.58;;
21587;SDS011;10956;48.878;13.316;2022-07-29T15:20:30;1.50;;;1.40;;
21587;SDS011;10956;48.878;13.316;2022-07-29T15:22:56;1.65;;;1.55;;
21587;SDS011;10956;48.878;13.316;2022-07-29T15:25:22;1.83;;;1.70;;
21587;SDS011;10956;48.878;13.316;2022-07-29T15:27:48;1.60;;;1.50;;